createdAt,value
2019-05-03T00:03:15.476Z,3.53
2019-05-03T00:08:41.514Z,3.53
2019-05-03T00:14:06.344Z,4.07
2019-05-03T00:19:23.354Z,3.70
2019-05-03T00:24:42.106Z,4.10
2019-05-03T00:29:47.764Z,4.60
2019-05-03T00:35:13.165Z,4.07
2019-05-03T00:40:37.720Z,4.10
2019-05-03T00:46:02.268Z,4.13
2019-05-03T00:51:19.908Z,3.90
2019-05-03T00:56:37.188Z,4.90
2019-05-03T01:01:54.492Z,4.00
2019-05-03T01:07:02.110Z,5.07
2019-05-03T01:12:26.294Z,5.90
2019-05-03T01:17:32.872Z,4.77
2019-05-03T01:22:37.891Z,4.97
2019-05-03T01:27:43.187Z,5.37
2019-05-03T01:33:08.212Z,4.90
2019-05-03T01:38:28.964Z,5.33
2019-05-03T01:43:53.539Z,5.97
2019-05-03T01:49:16.925Z,6.57
2019-05-03T01:54:42.666Z,7.90
2019-05-03T01:59:48.550Z,9.20
2019-05-03T02:04:55.311Z,9.60
2019-05-03T02:10:19.864Z,8.17
2019-05-03T02:15:25.099Z,9.03
2019-05-03T02:20:32.270Z,9.17
2019-05-03T02:25:37.253Z,8.00
2019-05-03T02:30:44.216Z,7.50
2019-05-03T02:35:49.979Z,7.63
2019-05-03T02:41:14.423Z,7.93
2019-05-03T02:46:21.172Z,6.83
2019-05-03T02:51:46.195Z,6.73
2019-05-03T02:57:06.117Z,7.27
2019-05-03T03:02:10.671Z,7.77
2019-05-03T03:07:16.547Z,7.40
2019-05-03T03:12:25.751Z,8.60
2019-05-03T03:17:52.043Z,8.03
2019-05-03T03:22:59.440Z,6.97
2019-05-03T03:28:25.332Z,5.23
2019-05-03T03:33:30.532Z,5.23
2019-05-03T03:38:35.764Z,5.00
2019-05-03T03:43:42.095Z,5.10
2019-05-03T03:49:07.309Z,4.10
2019-05-03T03:54:15.654Z,4.20
2019-05-03T03:59:20.912Z,3.90
2019-05-03T04:04:45.227Z,3.77
2019-05-03T04:09:50.647Z,4.40
2019-05-03T04:15:19.569Z,3.40
2019-05-03T04:20:26.743Z,2.90
2019-05-03T04:25:35.476Z,4.10
2019-05-03T04:30:59.415Z,3.40
2019-05-03T04:36:17.040Z,3.00
2019-05-03T04:41:22.231Z,2.97
2019-05-03T04:46:27.673Z,2.63
2019-05-03T04:51:34.827Z,3.37
2019-05-03T04:56:39.529Z,3.50
2019-05-03T05:01:46.258Z,2.63
2019-05-03T05:07:11.253Z,2.97
2019-05-03T05:12:16.475Z,2.70
2019-05-03T05:17:35.592Z,2.47
2019-05-03T05:22:41.034Z,3.17
2019-05-03T05:27:55.426Z,2.63
2019-05-03T05:33:24.975Z,2.00
2019-05-03T05:38:29.650Z,3.37
2019-05-03T05:43:35.707Z,2.53
2019-05-03T05:48:42.755Z,2.77
2019-05-03T05:53:47.746Z,3.73
2019-05-03T05:59:14.863Z,3.07
2019-05-03T06:04:20.495Z,3.73
2019-05-03T06:09:34.443Z,3.43
2019-05-03T06:14:41.190Z,3.83
2019-05-03T06:19:50.730Z,3.70
2019-05-03T06:30:37.383Z,3.67
2019-05-03T06:35:44.468Z,3.97
2019-05-03T06:40:49.463Z,2.90
2019-05-03T06:45:54.912Z,2.97
2019-05-03T06:51:00.273Z,2.50
2019-05-03T06:56:06.565Z,2.07
2019-05-03T07:07:06.427Z,2.90
2019-05-03T07:12:11.835Z,1.60
2019-05-03T07:17:17.265Z,2.60
2019-05-03T07:22:24.311Z,2.20
2019-05-03T07:27:48.683Z,2.67
2019-05-03T07:32:55.696Z,2.97
2019-05-03T07:38:01.245Z,2.73
2019-05-03T07:43:06.236Z,2.37
2019-05-03T07:48:11.526Z,2.43
2019-05-03T07:53:17.442Z,2.70
2019-05-03T07:58:30.483Z,3.00
2019-05-03T08:03:55.527Z,2.27
2019-05-03T08:09:01.283Z,2.00
2019-05-03T08:14:07.927Z,2.33
2019-05-03T08:19:15.244Z,2.83
2019-05-03T08:24:20.963Z,2.57
2019-05-03T08:29:26.722Z,2.63
2019-05-03T08:34:40.080Z,2.60
2019-05-03T08:39:45.999Z,2.27
2019-05-03T08:44:51.998Z,2.50
2019-05-03T08:49:57.598Z,1.97
2019-05-03T08:55:05.228Z,2.13
2019-05-03T09:00:14.800Z,2.50
2019-05-03T09:05:20.879Z,2.13
2019-05-03T09:10:28.483Z,2.40
2019-05-03T09:15:35.111Z,2.37
2019-05-03T09:20:41.439Z,2.30
2019-05-03T09:25:48.881Z,2.57
2019-05-03T09:30:56.089Z,2.33
2019-05-03T09:36:01.359Z,2.43
2019-05-03T09:41:06.720Z,1.70
2019-05-03T09:46:14.589Z,2.13
2019-05-03T09:51:20.500Z,1.70
2019-05-03T09:56:48.082Z,1.50
2019-05-03T10:01:51.518Z,1.53
2019-05-03T10:06:57.114Z,1.20
2019-05-03T10:12:05.476Z,1.80
2019-05-03T10:22:58.072Z,1.87
2019-05-03T10:28:05.778Z,2.10
2019-05-03T10:33:29.039Z,2.50
2019-05-03T10:38:35.752Z,1.73
2019-05-03T10:43:41.359Z,1.13
2019-05-03T10:48:47.359Z,0.80
2019-05-03T10:53:57.198Z,1.00
2019-05-03T10:59:06.190Z,0.87
2019-05-03T11:04:11.561Z,1.03
2019-05-03T11:09:16.809Z,1.50
2019-05-03T11:14:21.960Z,1.57
2019-05-03T11:19:27.546Z,1.47
2019-05-03T11:24:34.841Z,1.40
2019-05-03T11:29:40.346Z,1.20
2019-05-03T11:34:59.947Z,1.10
2019-05-03T11:40:10.378Z,1.30
2019-05-03T11:45:16.146Z,1.50
2019-05-03T11:50:21.396Z,1.07
2019-05-03T11:55:27.189Z,5.13
2019-05-03T12:00:34.266Z,1.37
2019-05-03T12:05:40.323Z,1.03
2019-05-03T12:10:55.307Z,0.80
2019-05-03T12:15:52.746Z,1.20
2019-05-03T12:20:59.836Z,0.90
2019-05-03T12:26:09.909Z,1.60
2019-05-03T12:31:25.449Z,1.70
2019-05-03T12:36:20.024Z,3.10
2019-05-03T12:41:25.558Z,1.43
2019-05-03T12:46:30.869Z,1.60
2019-05-03T12:51:36.067Z,2.20
2019-05-03T12:56:41.706Z,1.57
2019-05-03T13:01:57.265Z,1.80
2019-05-03T13:07:16.427Z,1.63
2019-05-03T13:12:25.238Z,1.50
2019-05-03T13:17:37.911Z,1.60
2019-05-03T13:22:45.727Z,1.30
2019-05-03T13:27:50.747Z,1.60
2019-05-03T13:32:55.955Z,1.60
2019-05-03T13:38:13.226Z,2.37
2019-05-03T13:43:18.643Z,1.97
2019-05-03T13:48:26.118Z,2.10
2019-05-03T13:53:50.426Z,1.60
2019-05-03T13:58:55.549Z,1.50
2019-05-03T14:04:00.627Z,1.57
2019-05-03T14:09:07.506Z,1.30
2019-05-03T14:14:15.061Z,1.23
2019-05-03T14:24:56.186Z,2.00
2019-05-03T14:30:01.711Z,2.00
2019-05-03T14:35:26.466Z,2.20
2019-05-03T14:40:31.732Z,2.73
2019-05-03T14:45:37.506Z,1.40
2019-05-03T14:50:42.858Z,1.57
2019-05-03T14:55:52.460Z,1.80
2019-05-03T15:01:04.988Z,1.73
2019-05-03T15:06:10.509Z,1.97
2019-05-03T15:11:16.255Z,1.50
2019-05-03T15:16:21.814Z,1.87
2019-05-03T15:21:27.407Z,1.90
2019-05-03T15:26:32.977Z,1.80
2019-05-03T15:31:38.450Z,2.07
2019-05-03T15:36:46.913Z,2.10
2019-05-03T15:41:52.061Z,2.43
2019-05-03T15:47:14.836Z,2.77
2019-05-03T15:52:20.021Z,1.63
2019-05-03T15:57:25.465Z,2.40
2019-05-03T16:02:31.147Z,1.93
2019-05-03T16:07:55.619Z,2.27
2019-05-03T16:13:14.330Z,2.20
2019-05-03T16:18:19.588Z,2.10
2019-05-03T16:23:25.339Z,2.03
2019-05-03T16:28:38.203Z,2.50
2019-05-03T16:33:43.186Z,2.37
2019-05-03T16:38:48.123Z,2.63
2019-05-03T16:43:53.124Z,2.53
2019-05-03T16:48:58.205Z,2.90
2019-05-03T16:54:03.405Z,3.40
2019-05-03T16:59:08.994Z,3.80
2019-05-03T17:09:38.276Z,3.93
2019-05-03T17:14:44.038Z,4.00
2019-05-03T17:19:49.258Z,3.70
2019-05-03T17:24:54.880Z,4.37
2019-05-03T17:30:00.201Z,4.30
2019-05-03T17:35:07.039Z,4.33
2019-05-03T17:40:14.867Z,4.40
2019-05-03T17:45:21.711Z,4.73
2019-05-03T17:50:27.270Z,5.23
2019-05-03T17:55:36.979Z,4.20
2019-05-03T18:00:59.991Z,4.53
2019-05-03T18:06:10.169Z,4.40
2019-05-03T18:11:17.032Z,4.43
2019-05-03T18:16:22.029Z,5.03
2019-05-03T18:21:46.619Z,6.00
2019-05-03T18:26:51.619Z,17.03
2019-05-03T18:31:56.660Z,18.90
2019-05-03T18:37:02.099Z,23.83
2019-05-03T18:42:09.190Z,29.13
2019-05-03T18:47:16.279Z,32.07
2019-05-03T18:52:25.565Z,27.83
2019-05-03T18:57:31.125Z,32.87
2019-05-03T19:02:36.605Z,30.07
2019-05-03T19:07:46.725Z,31.93
2019-05-03T19:12:55.207Z,37.67
2019-05-03T19:18:04.260Z,51.13
2019-05-03T19:23:09.046Z,24.80
2019-05-03T19:28:16.616Z,24.63
2019-05-03T19:33:21.605Z,14.40
2019-05-03T19:38:26.764Z,12.77
2019-05-03T19:43:32.341Z,24.47
2019-05-03T19:48:37.564Z,23.07
2019-05-03T19:53:47.638Z,27.03
2019-05-03T19:59:14.885Z,35.80
2019-05-03T20:05:00.447Z,27.00
2019-05-03T20:10:06.964Z,22.33
2019-05-03T20:15:14.514Z,22.30
2019-05-03T20:20:20.325Z,17.37
2019-05-03T20:25:25.925Z,18.10
2019-05-03T20:30:50.501Z,12.73
2019-05-03T20:35:56.329Z,11.30
2019-05-03T20:41:02.405Z,8.70
2019-05-03T20:46:28.804Z,7.30
2019-05-03T20:51:34.586Z,7.50
2019-05-03T20:56:59.681Z,9.30
2019-05-03T21:02:06.013Z,9.07
2019-05-03T21:07:11.880Z,9.30
2019-05-03T21:12:36.930Z,13.67
2019-05-03T21:18:18.130Z,17.30
2019-05-03T21:23:28.096Z,14.87
2019-05-03T21:28:52.613Z,14.87
2019-05-03T21:33:57.584Z,13.97
2019-05-03T21:39:14.875Z,15.67
2019-05-03T21:44:33.997Z,15.70
2019-05-03T21:50:00.406Z,16.37
2019-05-03T21:55:07.096Z,16.40
2019-05-03T22:00:13.667Z,17.20
2019-05-03T22:05:37.956Z,17.43
2019-05-03T22:10:55.720Z,17.67
2019-05-03T22:21:55.351Z,16.63
2019-05-03T22:27:02.408Z,21.17
2019-05-03T22:32:07.688Z,25.70
2019-05-03T22:37:14.218Z,21.33
2019-05-03T22:42:20.444Z,23.57
2019-05-03T22:47:26.000Z,19.07
2019-05-03T22:52:50.590Z,16.47
2019-05-03T22:57:56.071Z,18.00
2019-05-03T23:03:01.414Z,17.03
2019-05-03T23:08:06.650Z,21.60
2019-05-03T23:13:12.051Z,20.10
2019-05-03T23:18:17.015Z,19.77
2019-05-03T23:23:51.948Z,16.07
2019-05-03T23:29:09.547Z,16.23
2019-05-03T23:34:14.845Z,15.03
2019-05-03T23:39:20.387Z,15.73
2019-05-03T23:44:45.633Z,14.57
2019-05-03T23:49:51.072Z,14.97
2019-05-03T23:55:20.292Z,17.60
